createdAt,value
2022-08-14T00:02:01.259Z,9.07
2022-08-14T00:04:32.225Z,9.44
2022-08-14T00:07:06.756Z,9.19
2022-08-14T00:09:55.310Z,9.08
2022-08-14T00:12:24.900Z,9.34
2022-08-14T00:15:04.556Z,9.77
2022-08-14T00:17:38.053Z,9.32
2022-08-14T00:20:15.939Z,8.97
2022-08-14T00:22:57.840Z,8.81
2022-08-14T00:25:41.804Z,8.94
2022-08-14T00:28:15.585Z,8.66
2022-08-14T00:30:46.774Z,8.69
2022-08-14T00:33:16.484Z,8.65
2022-08-14T00:36:39.502Z,8.36
2022-08-14T00:38:34.887Z,8.87
2022-08-14T00:41:05.078Z,8.64
2022-08-14T00:43:34.483Z,8.82
2022-08-14T00:46:08.156Z,8.31
2022-08-14T00:48:50.921Z,8.45
2022-08-14T00:51:21.837Z,8.31
2022-08-14T00:53:50.370Z,8.58
2022-08-14T00:56:21.237Z,8.23
2022-08-14T00:58:49.396Z,8.77
2022-08-14T01:01:19.194Z,8.37
2022-08-14T01:03:52.897Z,8.97
2022-08-14T01:06:21.261Z,8.59
2022-08-14T01:08:52.137Z,8.87
2022-08-14T01:11:31.653Z,8.56
2022-08-14T01:14:18.135Z,8.37
2022-08-14T01:16:53.129Z,9.05
2022-08-14T01:19:43.515Z,8.32
2022-08-14T01:22:12.261Z,8.85
2022-08-14T01:24:43.592Z,8.68
2022-08-14T01:27:22.336Z,8.75
2022-08-14T01:30:00.783Z,8.47
2022-08-14T01:32:37.501Z,8.93
2022-08-14T01:35:18.333Z,8.50
2022-08-14T01:37:58.657Z,8.45
2022-08-14T01:40:33.219Z,8.81
2022-08-14T01:43:08.767Z,8.84
2022-08-14T01:46:07.173Z,9.46
2022-08-14T01:48:40.361Z,9.25
2022-08-14T01:51:19.045Z,9.52
2022-08-14T01:53:54.725Z,9.35
2022-08-14T01:56:36.887Z,9.29
2022-08-14T01:59:09.687Z,9.74
2022-08-14T02:01:38.467Z,9.94
2022-08-14T02:04:20.558Z,9.35
2022-08-14T02:06:57.702Z,9.74
2022-08-14T02:09:25.747Z,9.30
2022-08-14T02:11:54.369Z,9.68
2022-08-14T02:14:30.936Z,9.47
2022-08-14T02:17:00.357Z,9.70
2022-08-14T02:19:31.722Z,9.78
2022-08-14T02:22:02.832Z,9.61
2022-08-14T02:24:40.439Z,9.49
2022-08-14T02:28:25.152Z,9.46
2022-08-14T02:30:00.550Z,9.31
2022-08-14T02:32:37.010Z,9.42
2022-08-14T02:35:10.384Z,9.55
2022-08-14T02:37:47.949Z,10.05
2022-08-14T02:40:20.239Z,9.86
2022-08-14T02:42:55.257Z,9.92
2022-08-14T02:45:38.736Z,10.17
2022-08-14T02:49:04.969Z,10.33
2022-08-14T02:51:03.062Z,9.88
2022-08-14T02:53:33.310Z,10.38
2022-08-14T02:56:29.469Z,10.10
2022-08-14T02:58:51.796Z,10.34
2022-08-14T03:01:24.281Z,10.15
2022-08-14T03:03:58.989Z,10.38
2022-08-14T03:06:34.658Z,10.34
2022-08-14T03:09:15.220Z,9.87
2022-08-14T03:11:44.677Z,10.42
2022-08-14T03:14:15.503Z,10.12
2022-08-14T03:16:45.647Z,10.56
2022-08-14T03:19:19.511Z,10.34
2022-08-14T03:21:52.970Z,9.99
2022-08-14T03:24:23.330Z,10.52
2022-08-14T03:26:56.109Z,10.35
2022-08-14T03:29:26.394Z,10.54
2022-08-14T03:31:55.050Z,10.46
2022-08-14T03:34:24.634Z,10.19
2022-08-14T03:37:39.494Z,10.40
2022-08-14T03:40:00.855Z,10.84
2022-08-14T03:42:35.997Z,10.15
2022-08-14T03:45:25.185Z,9.93
2022-08-14T03:47:58.347Z,10.56
2022-08-14T03:50:31.369Z,10.00
2022-08-14T03:53:01.578Z,10.80
2022-08-14T03:55:30.527Z,10.87
2022-08-14T03:58:00.492Z,10.95
2022-08-14T04:00:42.784Z,10.79
2022-08-14T04:03:19.604Z,11.06
2022-08-14T04:05:53.055Z,11.12
2022-08-14T04:08:30.157Z,11.24
2022-08-14T04:11:02.031Z,10.93
2022-08-14T04:13:35.449Z,10.31
2022-08-14T04:16:06.907Z,10.85
2022-08-14T04:18:45.378Z,11.10
2022-08-14T04:21:14.883Z,10.86
2022-08-14T04:23:45.355Z,11.61
2022-08-14T04:26:27.467Z,10.99
2022-08-14T04:29:15.019Z,10.65
2022-08-14T04:33:01.026Z,11.17
2022-08-14T04:34:31.667Z,11.00
2022-08-14T04:37:24.841Z,11.27
2022-08-14T04:40:12.875Z,11.53
2022-08-14T04:42:59.969Z,11.15
2022-08-14T04:45:40.929Z,11.35
2022-08-14T04:48:13.003Z,11.16
2022-08-14T04:50:44.408Z,11.46
2022-08-14T04:53:14.995Z,11.58
2022-08-14T04:55:45.116Z,11.63
2022-08-14T04:58:21.930Z,11.03
2022-08-14T05:01:00.918Z,11.22
2022-08-14T05:03:31.468Z,11.44
2022-08-14T05:06:00.611Z,10.34
2022-08-14T05:08:31.976Z,11.37
2022-08-14T05:11:18.130Z,11.48
2022-08-14T05:14:16.906Z,11.35
2022-08-14T05:16:34.602Z,11.66
2022-08-14T05:19:17.849Z,11.49
2022-08-14T05:21:59.334Z,11.32
2022-08-14T05:24:29.713Z,10.85
2022-08-14T05:26:57.335Z,11.30
2022-08-14T05:29:27.484Z,10.96
2022-08-14T05:31:57.514Z,11.10
2022-08-14T05:34:31.897Z,11.03
2022-08-14T05:37:02.258Z,11.37
2022-08-14T05:39:31.802Z,11.21
2022-08-14T05:42:00.608Z,12.60
2022-08-14T05:44:30.617Z,11.35
2022-08-14T05:46:59.041Z,11.66
2022-08-14T05:49:33.618Z,11.47
2022-08-14T05:52:02.712Z,11.72
2022-08-14T05:54:35.924Z,11.97
2022-08-14T05:57:04.970Z,11.58
2022-08-14T05:59:38.910Z,12.20
2022-08-14T06:02:10.444Z,11.42
2022-08-14T06:04:39.509Z,11.40
2022-08-14T06:07:07.135Z,11.88
2022-08-14T06:09:40.377Z,12.05
2022-08-14T06:12:09.404Z,11.58
2022-08-14T06:14:38.705Z,11.87
2022-08-14T06:17:06.826Z,12.05
2022-08-14T06:19:34.410Z,11.61
2022-08-14T06:22:02.760Z,11.44
2022-08-14T06:24:35.630Z,11.91
2022-08-14T06:27:06.493Z,11.72
2022-08-14T06:29:38.155Z,12.13
2022-08-14T06:32:37.528Z,12.54
2022-08-14T06:35:02.499Z,14.13
2022-08-14T06:37:43.493Z,12.38
2022-08-14T06:40:25.635Z,12.21
2022-08-14T06:42:56.977Z,12.57
2022-08-14T06:45:29.496Z,12.67
2022-08-14T06:47:58.940Z,13.08
2022-08-14T06:50:29.949Z,13.30
2022-08-14T06:52:58.632Z,13.41
2022-08-14T06:55:28.130Z,13.02
2022-08-14T06:57:57.760Z,13.35
2022-08-14T07:00:30.859Z,12.85
2022-08-14T07:03:19.279Z,12.02
2022-08-14T07:05:55.293Z,12.40
2022-08-14T07:08:26.453Z,12.93
2022-08-14T07:11:00.114Z,12.74
2022-08-14T07:13:30.777Z,12.76
2022-08-14T07:16:00.471Z,12.31
2022-08-14T07:18:30.468Z,12.45
2022-08-14T07:20:58.784Z,11.98
2022-08-14T07:23:26.601Z,12.66
2022-08-14T07:25:56.474Z,12.09
2022-08-14T07:28:29.951Z,12.86
2022-08-14T07:31:04.688Z,13.24
2022-08-14T07:33:48.629Z,13.05
2022-08-14T07:36:27.651Z,13.84
2022-08-14T07:39:03.379Z,14.95
2022-08-14T07:41:42.527Z,13.78
2022-08-14T07:44:32.251Z,13.69
2022-08-14T07:46:59.299Z,14.44
2022-08-14T07:49:27.506Z,14.02
2022-08-14T07:51:56.738Z,13.52
2022-08-14T07:54:30.386Z,13.44
2022-08-14T07:56:59.811Z,13.60
2022-08-14T07:59:41.205Z,13.39
2022-08-14T08:02:19.079Z,13.61
2022-08-14T08:04:55.108Z,13.62
2022-08-14T08:07:31.759Z,12.26
2022-08-14T08:10:00.862Z,12.71
2022-08-14T08:12:32.499Z,14.32
2022-08-14T08:15:03.023Z,13.86
2022-08-14T08:17:42.665Z,12.75
2022-08-14T08:20:24.687Z,13.34
2022-08-14T08:23:05.901Z,13.16
2022-08-14T08:25:39.993Z,13.39
2022-08-14T08:28:19.699Z,14.76
2022-08-14T08:31:08.421Z,17.57
2022-08-14T08:33:37.778Z,15.13
2022-08-14T08:36:08.146Z,15.35
2022-08-14T08:39:15.496Z,17.25
2022-08-14T08:41:38.469Z,15.88
2022-08-14T08:44:17.028Z,17.00
2022-08-14T08:46:59.379Z,14.64
2022-08-14T08:49:36.193Z,13.61
2022-08-14T08:52:04.564Z,13.44
2022-08-14T08:54:32.320Z,12.93
2022-08-14T08:57:00.080Z,13.37
2022-08-14T08:59:34.124Z,13.92
2022-08-14T09:02:05.278Z,13.72
2022-08-14T09:04:45.328Z,13.44
2022-08-14T09:07:27.483Z,12.35
2022-08-14T09:09:59.477Z,11.66
2022-08-14T09:12:31.867Z,12.74
2022-08-14T09:15:12.659Z,14.98
2022-08-14T09:17:42.394Z,13.95
2022-08-14T09:20:12.524Z,11.67
2022-08-14T09:22:42.608Z,11.14
2022-08-14T09:25:16.932Z,11.12
2022-08-14T09:27:44.679Z,11.20
2022-08-14T09:30:33.197Z,12.51
2022-08-14T09:33:09.044Z,11.55
2022-08-14T09:35:46.151Z,11.23
2022-08-14T09:38:26.080Z,10.76
2022-08-14T09:41:13.206Z,10.95
2022-08-14T09:43:50.061Z,11.76
2022-08-14T09:46:21.394Z,12.13
2022-08-14T09:49:01.475Z,12.21
2022-08-14T09:51:32.950Z,11.65
2022-08-14T09:54:23.043Z,12.51
2022-08-14T09:56:56.585Z,12.45
2022-08-14T09:59:28.160Z,11.97
2022-08-14T10:01:59.866Z,17.97
2022-08-14T10:04:34.437Z,11.81
2022-08-14T10:07:06.076Z,11.77
2022-08-14T10:09:59.466Z,11.17
2022-08-14T10:12:45.167Z,11.44
2022-08-14T10:15:16.797Z,10.86
2022-08-14T10:17:44.561Z,10.47
2022-08-14T10:20:39.454Z,10.84
2022-08-14T10:23:17.830Z,10.95
2022-08-14T10:25:50.678Z,11.45
2022-08-14T10:28:57.448Z,12.92
2022-08-14T10:31:17.838Z,11.81
2022-08-14T10:34:00.437Z,10.85
2022-08-14T10:36:40.650Z,11.18
2022-08-14T10:39:16.534Z,11.14
2022-08-14T10:41:48.816Z,12.01
2022-08-14T10:44:24.968Z,12.25
2022-08-14T10:47:41.475Z,13.22
2022-08-14T10:50:00.293Z,12.55
2022-08-14T10:52:42.165Z,12.73
2022-08-14T10:55:14.426Z,13.20
2022-08-14T10:57:53.994Z,14.93
2022-08-14T11:00:30.346Z,13.50
2022-08-14T11:03:11.145Z,13.29
2022-08-14T11:05:41.976Z,12.75
2022-08-14T11:08:13.581Z,12.43
2022-08-14T11:10:43.702Z,12.51
2022-08-14T11:13:24.186Z,12.68
2022-08-14T11:15:53.651Z,13.10
2022-08-14T11:18:30.269Z,13.10
2022-08-14T11:21:07.055Z,12.91
2022-08-14T11:23:39.822Z,12.96
2022-08-14T11:26:10.825Z,12.95
2022-08-14T11:28:48.091Z,13.36
2022-08-14T11:31:23.841Z,13.65
2022-08-14T11:33:59.318Z,14.14
2022-08-14T11:36:35.079Z,14.03
2022-08-14T11:39:34.253Z,13.63
2022-08-14T11:42:55.637Z,14.51
2022-08-14T11:45:00.093Z,14.15
2022-08-14T11:47:35.083Z,14.35
2022-08-14T11:50:14.224Z,14.60
2022-08-14T11:53:02.382Z,15.29
2022-08-14T11:55:38.000Z,15.25
2022-08-14T11:58:11.887Z,14.99
2022-08-14T12:00:53.944Z,14.47
2022-08-14T12:03:27.068Z,14.70
2022-08-14T12:06:29.064Z,14.00
2022-08-14T12:09:00.491Z,14.03
2022-08-14T12:11:38.317Z,14.07
2022-08-14T12:14:29.157Z,13.27
2022-08-14T12:17:02.026Z,13.89
2022-08-14T12:19:33.548Z,13.75
2022-08-14T12:22:02.859Z,14.38
2022-08-14T12:24:36.849Z,14.29
2022-08-14T12:27:07.960Z,14.50
2022-08-14T12:29:37.278Z,14.17
2022-08-14T12:32:08.982Z,14.46
2022-08-14T12:34:45.062Z,13.30
2022-08-14T12:37:12.954Z,13.47
2022-08-14T12:39:40.990Z,13.70
2022-08-14T12:42:11.722Z,13.39
2022-08-14T12:44:58.722Z,13.49
2022-08-14T12:47:31.150Z,12.62
2022-08-14T12:49:58.895Z,12.94
2022-08-14T12:52:41.635Z,12.62
2022-08-14T12:55:21.075Z,12.02
2022-08-14T12:57:53.341Z,11.26
2022-08-14T13:00:24.201Z,10.59
2022-08-14T13:02:55.389Z,10.57
2022-08-14T13:05:31.323Z,10.37
2022-08-14T13:08:01.312Z,10.62
2022-08-14T13:10:51.421Z,10.35
2022-08-14T13:13:20.621Z,10.59
2022-08-14T13:15:57.192Z,10.27
2022-08-14T13:18:26.674Z,10.33
2022-08-14T13:20:59.619Z,10.72
2022-08-14T13:23:33.775Z,11.18
2022-08-14T13:26:04.934Z,11.03
2022-08-14T13:28:41.219Z,11.09
2022-08-14T13:31:30.025Z,10.65
2022-08-14T13:33:58.527Z,10.91
2022-08-14T13:36:51.611Z,10.59
2022-08-14T13:39:18.186Z,10.24
2022-08-14T13:41:47.720Z,10.71
2022-08-14T13:44:26.690Z,9.91
2022-08-14T13:46:54.274Z,10.59
2022-08-14T13:49:23.770Z,10.29
2022-08-14T13:51:54.362Z,10.58
2022-08-14T13:54:26.918Z,10.53
2022-08-14T13:57:00.116Z,13.12
2022-08-14T13:59:37.785Z,12.67
2022-08-14T14:02:08.067Z,12.21
2022-08-14T14:04:40.957Z,14.20
2022-08-14T14:07:13.103Z,10.86
2022-08-14T14:09:50.948Z,17.09
2022-08-14T14:12:36.639Z,12.05
2022-08-14T14:15:07.045Z,11.04
2022-08-14T14:17:38.925Z,9.62
2022-08-14T14:20:11.373Z,10.41
2022-08-14T14:23:01.713Z,10.76
2022-08-14T14:25:45.704Z,11.31
2022-08-14T14:28:16.272Z,16.84
2022-08-14T14:30:53.241Z,10.97
2022-08-14T14:33:45.345Z,10.36
2022-08-14T14:36:14.897Z,10.31
2022-08-14T14:38:44.317Z,9.97
2022-08-14T14:41:15.153Z,9.63
2022-08-14T14:43:48.980Z,9.72
2022-08-14T14:46:20.356Z,10.16
2022-08-14T14:48:53.926Z,9.65
2022-08-14T14:51:23.298Z,10.91
2022-08-14T14:53:52.477Z,10.36
2022-08-14T14:56:50.109Z,9.44
2022-08-14T14:59:11.507Z,9.44
2022-08-14T15:01:39.989Z,9.57
2022-08-14T15:04:19.782Z,10.08
2022-08-14T15:06:48.842Z,9.01
2022-08-14T15:09:17.708Z,10.09
2022-08-14T15:11:47.015Z,9.97
2022-08-14T15:14:54.585Z,9.28
2022-08-14T15:17:02.766Z,9.28
2022-08-14T15:19:30.907Z,9.18
2022-08-14T15:21:59.434Z,9.23
2022-08-14T15:24:27.327Z,9.52
2022-08-14T15:26:58.552Z,10.39
2022-08-14T15:29:27.411Z,9.65
2022-08-14T15:31:54.993Z,8.94
2022-08-14T15:34:44.860Z,10.04
2022-08-14T15:37:12.980Z,11.31
2022-08-14T15:39:45.398Z,10.37
2022-08-14T15:42:15.873Z,10.15
2022-08-14T15:44:56.981Z,9.32
2022-08-14T15:47:28.975Z,9.31
2022-08-14T15:50:04.823Z,10.77
2022-08-14T15:52:35.148Z,9.92
2022-08-14T15:55:13.146Z,10.39
2022-08-14T15:58:02.025Z,9.99
2022-08-14T16:00:52.013Z,11.22
2022-08-14T16:03:27.026Z,11.52
2022-08-14T16:05:55.832Z,8.89
2022-08-14T16:08:29.340Z,9.84
2022-08-14T16:11:02.702Z,9.27
2022-08-14T16:13:39.641Z,9.12
2022-08-14T16:16:49.741Z,9.24
2022-08-14T16:19:01.020Z,8.09
2022-08-14T16:21:31.966Z,9.34
2022-08-14T16:24:00.002Z,9.74
2022-08-14T16:26:29.841Z,8.54
2022-08-14T16:29:09.317Z,8.17
2022-08-14T16:31:36.973Z,7.76
2022-08-14T16:34:44.007Z,8.04
2022-08-14T16:36:54.448Z,7.85
2022-08-14T16:39:23.570Z,7.70
2022-08-14T16:41:53.550Z,7.48
2022-08-14T16:44:32.054Z,7.56
2022-08-14T16:47:03.976Z,7.26
2022-08-14T16:50:03.118Z,7.13
2022-08-14T16:52:43.611Z,6.67
2022-08-14T16:55:08.484Z,6.71
2022-08-14T16:57:46.905Z,6.66
2022-08-14T17:00:44.242Z,6.63
2022-08-14T17:03:12.815Z,6.78
2022-08-14T17:05:43.234Z,7.12
2022-08-14T17:08:31.914Z,6.37
2022-08-14T17:11:04.623Z,6.90
2022-08-14T17:13:59.468Z,6.74
2022-08-14T17:16:30.951Z,6.83
2022-08-14T17:19:01.768Z,6.79
2022-08-14T17:21:32.508Z,6.99
2022-08-14T17:24:56.837Z,6.61
2022-08-14T17:29:54.419Z,6.64
2022-08-14T17:32:29.450Z,6.38
2022-08-14T17:35:16.601Z,6.51
2022-08-14T17:37:56.550Z,6.87
2022-08-14T17:40:29.933Z,7.19
2022-08-14T17:43:01.957Z,7.31
2022-08-14T17:45:41.057Z,7.84
2022-08-14T17:49:14.905Z,10.36
2022-08-14T17:51:23.883Z,12.89
2022-08-14T17:54:01.184Z,8.55
2022-08-14T17:56:31.512Z,7.70
2022-08-14T17:59:05.016Z,7.35
2022-08-14T18:01:36.111Z,7.42
2022-08-14T18:04:25.062Z,7.48
2022-08-14T18:06:57.846Z,7.14
2022-08-14T18:09:40.059Z,7.29
2022-08-14T18:12:37.013Z,7.11
2022-08-14T18:15:16.216Z,7.51
2022-08-14T18:17:52.894Z,8.47
2022-08-14T18:21:40.316Z,14.49
2022-08-14T18:23:14.029Z,12.48
2022-08-14T18:25:47.294Z,10.71
2022-08-14T18:28:18.226Z,8.60
2022-08-14T18:31:20.621Z,8.18
2022-08-14T18:33:57.436Z,9.40
2022-08-14T18:37:17.269Z,8.73
2022-08-14T18:40:02.488Z,16.51
2022-08-14T18:42:35.309Z,16.86
2022-08-14T18:45:12.618Z,15.39
2022-08-14T18:48:14.638Z,10.05
2022-08-14T18:50:33.051Z,9.54
2022-08-14T18:53:09.169Z,9.64
2022-08-14T18:55:47.651Z,9.30
2022-08-14T18:58:31.796Z,9.67
2022-08-14T19:01:04.625Z,8.79
2022-08-14T19:03:33.717Z,8.45
2022-08-14T19:06:04.407Z,9.06
2022-08-14T19:08:43.728Z,8.75
2022-08-14T19:11:31.758Z,8.28
2022-08-14T19:14:04.658Z,8.32
2022-08-14T19:16:43.007Z,8.50
2022-08-14T19:19:12.414Z,8.80
2022-08-14T19:21:40.030Z,8.69
2022-08-14T19:24:29.357Z,8.69
2022-08-14T19:27:19.699Z,8.52
2022-08-14T19:30:20.457Z,8.48
2022-08-14T19:32:57.257Z,18.00
2022-08-14T19:35:48.490Z,17.66
2022-08-14T19:38:35.562Z,12.29
2022-08-14T19:41:16.037Z,14.62
2022-08-14T19:43:55.113Z,11.17
2022-08-14T19:46:37.707Z,10.75
2022-08-14T19:49:07.403Z,10.08
2022-08-14T19:51:48.828Z,9.82
2022-08-14T19:54:16.851Z,9.74
2022-08-14T19:56:45.729Z,9.25
2022-08-14T19:59:18.124Z,9.56
2022-08-14T20:01:49.787Z,9.45
2022-08-14T20:04:45.881Z,8.93
2022-08-14T20:07:59.804Z,9.12
2022-08-14T20:11:11.277Z,9.37
2022-08-14T20:13:15.177Z,8.76
2022-08-14T20:15:51.626Z,9.68
2022-08-14T20:18:49.383Z,10.03
2022-08-14T20:21:12.605Z,11.19
2022-08-14T20:23:41.438Z,14.37
2022-08-14T20:26:31.736Z,17.68
2022-08-14T20:29:04.342Z,15.10
2022-08-14T20:31:37.075Z,11.47
2022-08-14T20:34:24.989Z,9.92
2022-08-14T20:37:04.175Z,9.15
2022-08-14T20:39:34.574Z,9.66
2022-08-14T20:42:29.461Z,13.03
2022-08-14T20:45:21.379Z,13.83
2022-08-14T20:48:01.055Z,9.88
2022-08-14T20:50:29.719Z,10.10
2022-08-14T20:52:58.227Z,10.53
2022-08-14T20:55:28.600Z,10.89
2022-08-14T20:57:58.941Z,16.70
2022-08-14T21:00:38.337Z,14.02
2022-08-14T21:03:28.959Z,10.84
2022-08-14T21:05:58.920Z,15.12
2022-08-14T21:08:26.942Z,17.72
2022-08-14T21:10:56.707Z,14.79
2022-08-14T21:14:08.647Z,11.13
2022-08-14T21:16:33.644Z,11.18
2022-08-14T21:19:03.955Z,11.68
2022-08-14T21:21:41.766Z,14.41
2022-08-14T21:24:39.809Z,19.09
2022-08-14T21:27:19.697Z,13.63
2022-08-14T21:29:54.312Z,11.33
2022-08-14T21:32:36.583Z,10.23
2022-08-14T21:35:22.792Z,12.75
2022-08-14T21:37:52.483Z,10.67
2022-08-14T21:40:41.697Z,10.17
2022-08-14T21:43:17.966Z,10.51
2022-08-14T21:45:53.403Z,10.70
2022-08-14T21:48:26.191Z,11.39
2022-08-14T21:51:02.124Z,13.16
2022-08-14T21:53:58.274Z,12.33
2022-08-14T21:56:38.226Z,11.95
2022-08-14T21:59:09.125Z,13.00
2022-08-14T22:02:00.097Z,11.84
2022-08-14T22:04:33.243Z,10.50
2022-08-14T22:07:03.008Z,10.20
2022-08-14T22:09:36.073Z,10.09
2022-08-14T22:12:07.297Z,9.84
2022-08-14T22:14:43.269Z,9.90
2022-08-14T22:17:17.114Z,9.26
2022-08-14T22:19:54.585Z,9.53
2022-08-14T22:22:26.001Z,9.66
2022-08-14T22:25:00.069Z,9.69
2022-08-14T22:27:32.619Z,9.75
2022-08-14T22:30:01.208Z,9.78
2022-08-14T22:32:35.149Z,9.80
2022-08-14T22:35:18.741Z,9.82
2022-08-14T22:38:34.597Z,9.96
2022-08-14T22:41:02.875Z,10.51
2022-08-14T22:43:31.561Z,10.93
2022-08-14T22:46:02.047Z,10.40
2022-08-14T22:48:30.314Z,10.46
2022-08-14T22:50:58.482Z,11.16
2022-08-14T22:53:29.415Z,10.86
2022-08-14T22:55:58.749Z,10.05
2022-08-14T22:58:30.588Z,10.39
2022-08-14T23:01:01.499Z,10.26
2022-08-14T23:03:34.895Z,10.46
2022-08-14T23:07:01.516Z,11.16
2022-08-14T23:08:58.700Z,10.84
2022-08-14T23:11:29.733Z,11.37
2022-08-14T23:14:00.917Z,10.87
2022-08-14T23:16:29.940Z,10.77
2022-08-14T23:18:58.050Z,10.99
2022-08-14T23:21:28.926Z,10.99
2022-08-14T23:23:58.470Z,11.46
2022-08-14T23:26:48.123Z,11.35
2022-08-14T23:29:18.000Z,11.32
2022-08-14T23:31:45.974Z,11.01
2022-08-14T23:34:20.336Z,10.91
2022-08-14T23:36:53.574Z,11.76
2022-08-14T23:39:29.604Z,11.99
2022-08-14T23:42:02.150Z,11.51
2022-08-14T23:44:35.118Z,11.54
2022-08-14T23:47:11.619Z,11.55
2022-08-14T23:50:00.073Z,11.70
2022-08-14T23:53:04.178Z,11.42
2022-08-14T23:55:24.948Z,11.50
2022-08-14T23:57:58.501Z,11.49
